sensor_id;sensor_type;location;lat;lon;timestamp;P1;durP1;ratioP1;P2;durP2;ratioP2
15858;SDS011;8029;52.202;7.308;2023-05-10T00:01:38;0.00;;;0.00;;
15858;SDS011;8029;52.202;7.308;2023-05-10T00:04:05;0.00;;;0.00;;
15858;SDS011;8029;52.202;7.308;2023-05-10T00:06:31;0.10;;;0.10;;
15858;SDS011;8029;52.202;7.308;2023-05-10T00:08:57;0.00;;;0.00;;
15858;SDS011;8029;52.202;7.308;2023-05-10T00:11:23;0.00;;;0.00;;
15858;SDS011;8029;52.202;7.308;2023-05-10T00:13:49;0.10;;;0.10;;
15858;SDS011;8029;52.202;7.308;2023-05-10T00:16:15;0.08;;;0.08;;
15858;SDS011;8029;52.202;7.308;2023-05-10T00:18:41;0.10;;;0.10;;
15858;SDS011;8029;52.202;7.308;2023-05-10T00:21:07;0.10;;;0.10;;
15858;SDS011;8029;52.202;7.308;2023-05-10T00:23:33;0.03;;;0.03;;
15858;SDS011;8029;52.202;7.308;2023-05-10T00:25:59;0.00;;;0.00;;
15858;SDS011;8029;52.202;7.308;2023-05-10T00:28:26;0.00;;;0.00;;
15858;SDS011;8029;52.202;7.308;2023-05-10T00:30:53;0.00;;;0.00;;
15858;SDS011;8029;52.202;7.308;2023-05-10T00:33:19;0.10;;;0.10;;
15858;SDS011;8029;52.202;7.308;2023-05-10T00:35:45;0.03;;;0.03;;
15858;SDS011;8029;52.202;7.308;2023-05-10T00:38:11;0.00;;;0.00;;
15858;SDS011;8029;52.202;7.308;2023-05-10T00:40:37;0.00;;;0.00;;
15858;SDS011;8029;52.202;7.308;2023-05-10T00:43:03;0.00;;;0.00;;
15858;SDS011;8029;52.202;7.308;2023-05-10T00:45:30;0.00;;;0.00;;
15858;SDS011;8029;52.202;7.308;2023-05-10T00:47:56;0.10;;;0.10;;
15858;SDS011;8029;52.202;7.308;2023-05-10T00:50:23;0.10;;;0.10;;
15858;SDS011;8029;52.202;7.308;2023-05-10T00:52:49;0.00;;;0.00;;
15858;SDS011;8029;52.202;7.308;2023-05-10T00:55:15;0.03;;;0.03;;
15858;SDS011;8029;52.202;7.308;2023-05-10T00:57:41;0.10;;;0.10;;
15858;SDS011;8029;52.202;7.308;2023-05-10T01:00:09;0.10;;;0.10;;
15858;SDS011;8029;52.202;7.308;2023-05-10T01:02:42;0.10;;;0.10;;
15858;SDS011;8029;52.202;7.308;2023-05-10T01:05:08;0.10;;;0.10;;
15858;SDS011;8029;52.202;7.308;2023-05-10T01:07:35;0.10;;;0.10;;
15858;SDS011;8029;52.202;7.308;2023-05-10T01:10:00;0.00;;;0.00;;
15858;SDS011;8029;52.202;7.308;2023-05-10T01:12:27;0.10;;;0.10;;
15858;SDS011;8029;52.202;7.308;2023-05-10T01:14:53;0.10;;;0.10;;
15858;SDS011;8029;52.202;7.308;2023-05-10T01:17:19;0.10;;;0.10;;
15858;SDS011;8029;52.202;7.308;2023-05-10T01:19:46;0.00;;;0.00;;
15858;SDS011;8029;52.202;7.308;2023-05-10T01:24:49;0.10;;;0.10;;
15858;SDS011;8029;52.202;7.308;2023-05-10T01:37:36;0.05;;;0.05;;
15858;SDS011;8029;52.202;7.308;2023-05-10T01:40:21;0.10;;;0.10;;
15858;SDS011;8029;52.202;7.308;2023-05-10T01:42:53;0.00;;;0.00;;
15858;SDS011;8029;52.202;7.308;2023-05-10T01:45:41;0.10;;;0.10;;
15858;SDS011;8029;52.202;7.308;2023-05-10T01:48:09;0.10;;;0.10;;
15858;SDS011;8029;52.202;7.308;2023-05-10T01:50:37;0.00;;;0.00;;
15858;SDS011;8029;52.202;7.308;2023-05-10T01:53:05;0.00;;;0.00;;
15858;SDS011;8029;52.202;7.308;2023-05-10T01:55:33;0.10;;;0.10;;
15858;SDS011;8029;52.202;7.308;2023-05-10T01:58:07;0.10;;;0.10;;
15858;SDS011;8029;52.202;7.308;2023-05-10T02:00:34;0.00;;;0.00;;
15858;SDS011;8029;52.202;7.308;2023-05-10T02:03:04;0.10;;;0.10;;
15858;SDS011;8029;52.202;7.308;2023-05-10T02:05:31;0.00;;;0.00;;
15858;SDS011;8029;52.202;7.308;2023-05-10T02:07:58;0.00;;;0.00;;
15858;SDS011;8029;52.202;7.308;2023-05-10T02:10:26;0.10;;;0.10;;
15858;SDS011;8029;52.202;7.308;2023-05-10T02:12:52;0.00;;;0.00;;
15858;SDS011;8029;52.202;7.308;2023-05-10T02:15:22;0.00;;;0.00;;
15858;SDS011;8029;52.202;7.308;2023-05-10T02:17:48;0.10;;;0.10;;
15858;SDS011;8029;52.202;7.308;2023-05-10T02:20:14;0.00;;;0.00;;
15858;SDS011;8029;52.202;7.308;2023-05-10T02:22:41;0.00;;;0.00;;
15858;SDS011;8029;52.202;7.308;2023-05-10T02:25:08;0.10;;;0.10;;
15858;SDS011;8029;52.202;7.308;2023-05-10T02:27:35;0.10;;;0.10;;
15858;SDS011;8029;52.202;7.308;2023-05-10T02:30:02;0.00;;;0.00;;
15858;SDS011;8029;52.202;7.308;2023-05-10T02:32:28;0.10;;;0.10;;
15858;SDS011;8029;52.202;7.308;2023-05-10T02:34:55;0.00;;;0.00;;
15858;SDS011;8029;52.202;7.308;2023-05-10T02:37:21;0.10;;;0.10;;
15858;SDS011;8029;52.202;7.308;2023-05-10T02:39:48;0.10;;;0.10;;
15858;SDS011;8029;52.202;7.308;2023-05-10T02:42:18;0.10;;;0.10;;
15858;SDS011;8029;52.202;7.308;2023-05-10T02:44:45;0.00;;;0.00;;
15858;SDS011;8029;52.202;7.308;2023-05-10T02:47:13;0.10;;;0.10;;
15858;SDS011;8029;52.202;7.308;2023-05-10T02:49:39;0.00;;;0.00;;
15858;SDS011;8029;52.202;7.308;2023-05-10T02:52:05;0.00;;;0.00;;
15858;SDS011;8029;52.202;7.308;2023-05-10T02:54:34;0.10;;;0.10;;
15858;SDS011;8029;52.202;7.308;2023-05-10T02:57:05;0.10;;;0.10;;
15858;SDS011;8029;52.202;7.308;2023-05-10T02:59:32;0.00;;;0.00;;
15858;SDS011;8029;52.202;7.308;2023-05-10T03:01:59;0.10;;;0.10;;
15858;SDS011;8029;52.202;7.308;2023-05-10T03:04:26;0.00;;;0.00;;
15858;SDS011;8029;52.202;7.308;2023-05-10T03:06:52;0.10;;;0.10;;
15858;SDS011;8029;52.202;7.308;2023-05-10T03:09:18;0.00;;;0.00;;
15858;SDS011;8029;52.202;7.308;2023-05-10T03:11:56;0.10;;;0.10;;
15858;SDS011;8029;52.202;7.308;2023-05-10T03:14:45;0.10;;;0.10;;
15858;SDS011;8029;52.202;7.308;2023-05-10T03:17:17;0.00;;;0.00;;
15858;SDS011;8029;52.202;7.308;2023-05-10T03:19:51;0.00;;;0.00;;
15858;SDS011;8029;52.202;7.308;2023-05-10T03:22:21;0.10;;;0.10;;
15858;SDS011;8029;52.202;7.308;2023-05-10T03:24:49;0.10;;;0.10;;
15858;SDS011;8029;52.202;7.308;2023-05-10T03:27:15;0.08;;;0.08;;
15858;SDS011;8029;52.202;7.308;2023-05-10T03:29:41;0.10;;;0.10;;
15858;SDS011;8029;52.202;7.308;2023-05-10T03:32:07;0.10;;;0.10;;
15858;SDS011;8029;52.202;7.308;2023-05-10T03:34:33;0.00;;;0.00;;
15858;SDS011;8029;52.202;7.308;2023-05-10T03:37:01;0.00;;;0.00;;
15858;SDS011;8029;52.202;7.308;2023-05-10T03:39:27;0.00;;;0.00;;
15858;SDS011;8029;52.202;7.308;2023-05-10T03:41:53;0.10;;;0.10;;
15858;SDS011;8029;52.202;7.308;2023-05-10T03:44:19;0.10;;;0.10;;
15858;SDS011;8029;52.202;7.308;2023-05-10T03:46:45;0.10;;;0.10;;
15858;SDS011;8029;52.202;7.308;2023-05-10T03:49:11;0.00;;;0.00;;
15858;SDS011;8029;52.202;7.308;2023-05-10T03:51:37;0.10;;;0.10;;
15858;SDS011;8029;52.202;7.308;2023-05-10T03:54:03;0.00;;;0.00;;
15858;SDS011;8029;52.202;7.308;2023-05-10T03:56:29;0.10;;;0.10;;
15858;SDS011;8029;52.202;7.308;2023-05-10T03:58:55;0.10;;;0.10;;
15858;SDS011;8029;52.202;7.308;2023-05-10T04:01:21;0.10;;;0.10;;
15858;SDS011;8029;52.202;7.308;2023-05-10T04:03:47;0.10;;;0.10;;
15858;SDS011;8029;52.202;7.308;2023-05-10T04:06:13;0.10;;;0.10;;
15858;SDS011;8029;52.202;7.308;2023-05-10T04:08:39;0.10;;;0.10;;
15858;SDS011;8029;52.202;7.308;2023-05-10T04:11:06;0.10;;;0.10;;
15858;SDS011;8029;52.202;7.308;2023-05-10T04:13:32;0.00;;;0.00;;
15858;SDS011;8029;52.202;7.308;2023-05-10T04:15:58;0.10;;;0.10;;
15858;SDS011;8029;52.202;7.308;2023-05-10T04:18:24;0.10;;;0.10;;
15858;SDS011;8029;52.202;7.308;2023-05-10T04:20:50;0.10;;;0.10;;
15858;SDS011;8029;52.202;7.308;2023-05-10T04:23:16;0.10;;;0.10;;
15858;SDS011;8029;52.202;7.308;2023-05-10T04:25:42;0.10;;;0.10;;
15858;SDS011;8029;52.202;7.308;2023-05-10T04:28:08;0.10;;;0.10;;
15858;SDS011;8029;52.202;7.308;2023-05-10T04:30:34;0.00;;;0.00;;
15858;SDS011;8029;52.202;7.308;2023-05-10T04:33:00;0.10;;;0.10;;
15858;SDS011;8029;52.202;7.308;2023-05-10T04:35:27;0.10;;;0.10;;
15858;SDS011;8029;52.202;7.308;2023-05-10T04:37:53;0.10;;;0.10;;
15858;SDS011;8029;52.202;7.308;2023-05-10T04:40:19;0.10;;;0.10;;
15858;SDS011;8029;52.202;7.308;2023-05-10T04:42:45;0.00;;;0.00;;
15858;SDS011;8029;52.202;7.308;2023-05-10T04:45:11;0.10;;;0.10;;
15858;SDS011;8029;52.202;7.308;2023-05-10T04:47:39;0.00;;;0.00;;
15858;SDS011;8029;52.202;7.308;2023-05-10T04:50:05;0.00;;;0.00;;
15858;SDS011;8029;52.202;7.308;2023-05-10T04:52:32;0.10;;;0.10;;
15858;SDS011;8029;52.202;7.308;2023-05-10T04:54:59;0.00;;;0.00;;
15858;SDS011;8029;52.202;7.308;2023-05-10T04:57:25;0.10;;;0.10;;
15858;SDS011;8029;52.202;7.308;2023-05-10T04:59:51;0.00;;;0.00;;
15858;SDS011;8029;52.202;7.308;2023-05-10T05:02:17;0.08;;;0.08;;
15858;SDS011;8029;52.202;7.308;2023-05-10T05:04:43;0.10;;;0.10;;
15858;SDS011;8029;52.202;7.308;2023-05-10T05:07:09;0.10;;;0.10;;
15858;SDS011;8029;52.202;7.308;2023-05-10T05:09:35;0.10;;;0.10;;
15858;SDS011;8029;52.202;7.308;2023-05-10T05:12:01;0.00;;;0.00;;
15858;SDS011;8029;52.202;7.308;2023-05-10T05:14:27;0.00;;;0.00;;
15858;SDS011;8029;52.202;7.308;2023-05-10T05:16:53;0.05;;;0.05;;
15858;SDS011;8029;52.202;7.308;2023-05-10T05:19:20;0.10;;;0.10;;
15858;SDS011;8029;52.202;7.308;2023-05-10T05:21:46;0.00;;;0.00;;
15858;SDS011;8029;52.202;7.308;2023-05-10T05:24:12;0.00;;;0.00;;
15858;SDS011;8029;52.202;7.308;2023-05-10T05:26:38;0.10;;;0.10;;
15858;SDS011;8029;52.202;7.308;2023-05-10T05:29:04;0.10;;;0.10;;
15858;SDS011;8029;52.202;7.308;2023-05-10T05:31:30;0.10;;;0.10;;
15858;SDS011;8029;52.202;7.308;2023-05-10T05:33:56;0.10;;;0.10;;
15858;SDS011;8029;52.202;7.308;2023-05-10T05:36:22;0.10;;;0.10;;
15858;SDS011;8029;52.202;7.308;2023-05-10T05:38:48;0.10;;;0.10;;
15858;SDS011;8029;52.202;7.308;2023-05-10T05:41:14;0.10;;;0.10;;
15858;SDS011;8029;52.202;7.308;2023-05-10T05:43:40;0.00;;;0.00;;
15858;SDS011;8029;52.202;7.308;2023-05-10T05:46:06;0.00;;;0.00;;
15858;SDS011;8029;52.202;7.308;2023-05-10T05:48:32;0.10;;;0.10;;
15858;SDS011;8029;52.202;7.308;2023-05-10T05:50:58;0.00;;;0.00;;
15858;SDS011;8029;52.202;7.308;2023-05-10T05:53:24;0.00;;;0.00;;
15858;SDS011;8029;52.202;7.308;2023-05-10T05:55:51;0.10;;;0.10;;
15858;SDS011;8029;52.202;7.308;2023-05-10T05:58:18;0.10;;;0.10;;
15858;SDS011;8029;52.202;7.308;2023-05-10T06:00:44;0.00;;;0.00;;
15858;SDS011;8029;52.202;7.308;2023-05-10T06:03:10;0.10;;;0.10;;
15858;SDS011;8029;52.202;7.308;2023-05-10T06:05:36;0.00;;;0.00;;
15858;SDS011;8029;52.202;7.308;2023-05-10T06:08:01;0.10;;;0.10;;
15858;SDS011;8029;52.202;7.308;2023-05-10T06:10:27;0.10;;;0.10;;
15858;SDS011;8029;52.202;7.308;2023-05-10T06:12:53;0.10;;;0.10;;
15858;SDS011;8029;52.202;7.308;2023-05-10T06:15:19;0.00;;;0.00;;
15858;SDS011;8029;52.202;7.308;2023-05-10T06:17:45;0.08;;;0.08;;
15858;SDS011;8029;52.202;7.308;2023-05-10T06:20:14;0.05;;;0.05;;
15858;SDS011;8029;52.202;7.308;2023-05-10T06:22:40;0.00;;;0.00;;
15858;SDS011;8029;52.202;7.308;2023-05-10T06:25:06;0.00;;;0.00;;
15858;SDS011;8029;52.202;7.308;2023-05-10T06:27:32;0.00;;;0.00;;
15858;SDS011;8029;52.202;7.308;2023-05-10T06:29:58;0.08;;;0.08;;
15858;SDS011;8029;52.202;7.308;2023-05-10T06:32:24;0.00;;;0.00;;
15858;SDS011;8029;52.202;7.308;2023-05-10T06:34:50;0.10;;;0.10;;
15858;SDS011;8029;52.202;7.308;2023-05-10T06:37:17;0.10;;;0.10;;
15858;SDS011;8029;52.202;7.308;2023-05-10T06:39:43;0.10;;;0.10;;
15858;SDS011;8029;52.202;7.308;2023-05-10T06:42:09;0.10;;;0.10;;
15858;SDS011;8029;52.202;7.308;2023-05-10T06:44:35;0.00;;;0.00;;
15858;SDS011;8029;52.202;7.308;2023-05-10T06:47:01;0.10;;;0.10;;
15858;SDS011;8029;52.202;7.308;2023-05-10T06:49:27;0.10;;;0.10;;
15858;SDS011;8029;52.202;7.308;2023-05-10T06:51:53;0.05;;;0.05;;
15858;SDS011;8029;52.202;7.308;2023-05-10T06:54:19;0.05;;;0.05;;
15858;SDS011;8029;52.202;7.308;2023-05-10T06:56:45;0.10;;;0.10;;
15858;SDS011;8029;52.202;7.308;2023-05-10T06:59:11;0.10;;;0.10;;
15858;SDS011;8029;52.202;7.308;2023-05-10T07:01:38;0.00;;;0.00;;
15858;SDS011;8029;52.202;7.308;2023-05-10T07:04:04;0.00;;;0.00;;
15858;SDS011;8029;52.202;7.308;2023-05-10T07:06:30;0.10;;;0.10;;
15858;SDS011;8029;52.202;7.308;2023-05-10T07:08:56;0.10;;;0.10;;
15858;SDS011;8029;52.202;7.308;2023-05-10T07:11:22;0.10;;;0.10;;
15858;SDS011;8029;52.202;7.308;2023-05-10T07:13:48;0.10;;;0.10;;
15858;SDS011;8029;52.202;7.308;2023-05-10T07:16:14;0.05;;;0.05;;
15858;SDS011;8029;52.202;7.308;2023-05-10T07:18:40;0.10;;;0.10;;
15858;SDS011;8029;52.202;7.308;2023-05-10T07:21:06;0.03;;;0.03;;
15858;SDS011;8029;52.202;7.308;2023-05-10T07:23:32;0.00;;;0.00;;
15858;SDS011;8029;52.202;7.308;2023-05-10T07:25:58;0.10;;;0.10;;
15858;SDS011;8029;52.202;7.308;2023-05-10T07:28:25;0.00;;;0.00;;
15858;SDS011;8029;52.202;7.308;2023-05-10T07:30:51;0.10;;;0.10;;
15858;SDS011;8029;52.202;7.308;2023-05-10T07:33:17;0.00;;;0.00;;
15858;SDS011;8029;52.202;7.308;2023-05-10T07:35:43;0.10;;;0.10;;
15858;SDS011;8029;52.202;7.308;2023-05-10T07:38:09;0.10;;;0.10;;
15858;SDS011;8029;52.202;7.308;2023-05-10T07:40:38;0.10;;;0.10;;
15858;SDS011;8029;52.202;7.308;2023-05-10T07:43:04;0.10;;;0.10;;
15858;SDS011;8029;52.202;7.308;2023-05-10T07:45:30;0.00;;;0.00;;
15858;SDS011;8029;52.202;7.308;2023-05-10T07:47:57;0.08;;;0.08;;
15858;SDS011;8029;52.202;7.308;2023-05-10T07:50:23;0.10;;;0.10;;
15858;SDS011;8029;52.202;7.308;2023-05-10T07:52:49;0.10;;;0.10;;
15858;SDS011;8029;52.202;7.308;2023-05-10T07:55:15;0.10;;;0.10;;
15858;SDS011;8029;52.202;7.308;2023-05-10T07:57:41;0.10;;;0.10;;
15858;SDS011;8029;52.202;7.308;2023-05-10T08:00:08;0.10;;;0.10;;
15858;SDS011;8029;52.202;7.308;2023-05-10T08:02:35;0.00;;;0.00;;
15858;SDS011;8029;52.202;7.308;2023-05-10T08:05:01;0.10;;;0.10;;
15858;SDS011;8029;52.202;7.308;2023-05-10T08:07:27;0.00;;;0.00;;
15858;SDS011;8029;52.202;7.308;2023-05-10T08:09:53;0.00;;;0.00;;
15858;SDS011;8029;52.202;7.308;2023-05-10T08:12:19;0.00;;;0.00;;
15858;SDS011;8029;52.202;7.308;2023-05-10T08:14:45;0.00;;;0.00;;
15858;SDS011;8029;52.202;7.308;2023-05-10T08:17:11;0.00;;;0.00;;
15858;SDS011;8029;52.202;7.308;2023-05-10T08:19:37;0.10;;;0.10;;
15858;SDS011;8029;52.202;7.308;2023-05-10T08:22:03;0.00;;;0.00;;
15858;SDS011;8029;52.202;7.308;2023-05-10T08:24:29;0.00;;;0.00;;
15858;SDS011;8029;52.202;7.308;2023-05-10T08:26:55;0.10;;;0.10;;
15858;SDS011;8029;52.202;7.308;2023-05-10T08:29:21;0.10;;;0.10;;
15858;SDS011;8029;52.202;7.308;2023-05-10T08:31:47;0.00;;;0.00;;
15858;SDS011;8029;52.202;7.308;2023-05-10T08:34:13;0.00;;;0.00;;
15858;SDS011;8029;52.202;7.308;2023-05-10T08:36:39;0.00;;;0.00;;
15858;SDS011;8029;52.202;7.308;2023-05-10T08:39:05;0.10;;;0.10;;
15858;SDS011;8029;52.202;7.308;2023-05-10T08:41:31;0.10;;;0.10;;
15858;SDS011;8029;52.202;7.308;2023-05-10T08:43:58;0.10;;;0.10;;
15858;SDS011;8029;52.202;7.308;2023-05-10T08:46:26;0.00;;;0.00;;
15858;SDS011;8029;52.202;7.308;2023-05-10T08:48:53;0.00;;;0.00;;
15858;SDS011;8029;52.202;7.308;2023-05-10T08:51:21;0.00;;;0.00;;
15858;SDS011;8029;52.202;7.308;2023-05-10T08:53:48;0.10;;;0.10;;
15858;SDS011;8029;52.202;7.308;2023-05-10T08:56:15;0.00;;;0.00;;
15858;SDS011;8029;52.202;7.308;2023-05-10T08:58:42;0.00;;;0.00;;
15858;SDS011;8029;52.202;7.308;2023-05-10T09:01:08;0.00;;;0.00;;
15858;SDS011;8029;52.202;7.308;2023-05-10T09:03:35;0.00;;;0.00;;
15858;SDS011;8029;52.202;7.308;2023-05-10T09:06:03;0.10;;;0.10;;
15858;SDS011;8029;52.202;7.308;2023-05-10T09:08:30;0.00;;;0.00;;
15858;SDS011;8029;52.202;7.308;2023-05-10T09:10:56;0.00;;;0.00;;
15858;SDS011;8029;52.202;7.308;2023-05-10T09:13:22;0.00;;;0.00;;
15858;SDS011;8029;52.202;7.308;2023-05-10T09:15:49;0.10;;;0.10;;
15858;SDS011;8029;52.202;7.308;2023-05-10T09:18:15;0.10;;;0.10;;
15858;SDS011;8029;52.202;7.308;2023-05-10T09:20:41;0.00;;;0.00;;
15858;SDS011;8029;52.202;7.308;2023-05-10T09:23:07;0.00;;;0.00;;
15858;SDS011;8029;52.202;7.308;2023-05-10T09:25:33;0.10;;;0.10;;
15858;SDS011;8029;52.202;7.308;2023-05-10T09:28:00;0.10;;;0.10;;
15858;SDS011;8029;52.202;7.308;2023-05-10T09:30:27;0.10;;;0.10;;
15858;SDS011;8029;52.202;7.308;2023-05-10T09:32:54;0.00;;;0.00;;
15858;SDS011;8029;52.202;7.308;2023-05-10T09:35:21;0.00;;;0.00;;
15858;SDS011;8029;52.202;7.308;2023-05-10T09:37:49;0.10;;;0.10;;
15858;SDS011;8029;52.202;7.308;2023-05-10T09:40:19;0.00;;;0.00;;
15858;SDS011;8029;52.202;7.308;2023-05-10T09:43:01;0.00;;;0.00;;
15858;SDS011;8029;52.202;7.308;2023-05-10T09:45:28;0.08;;;0.08;;
15858;SDS011;8029;52.202;7.308;2023-05-10T09:47:54;0.10;;;0.10;;
15858;SDS011;8029;52.202;7.308;2023-05-10T09:50:21;0.00;;;0.00;;
15858;SDS011;8029;52.202;7.308;2023-05-10T09:55:20;0.10;;;0.10;;
15858;SDS011;8029;52.202;7.308;2023-05-10T09:57:47;0.10;;;0.10;;
15858;SDS011;8029;52.202;7.308;2023-05-10T10:00:17;0.00;;;0.00;;
15858;SDS011;8029;52.202;7.308;2023-05-10T10:02:44;0.00;;;0.00;;
15858;SDS011;8029;52.202;7.308;2023-05-10T10:05:11;0.10;;;0.10;;
15858;SDS011;8029;52.202;7.308;2023-05-10T10:07:37;0.00;;;0.00;;
15858;SDS011;8029;52.202;7.308;2023-05-10T10:10:03;0.10;;;0.10;;
15858;SDS011;8029;52.202;7.308;2023-05-10T10:12:30;0.00;;;0.00;;
15858;SDS011;8029;52.202;7.308;2023-05-10T10:14:56;0.00;;;0.00;;
15858;SDS011;8029;52.202;7.308;2023-05-10T10:17:23;0.00;;;0.00;;
15858;SDS011;8029;52.202;7.308;2023-05-10T10:19:50;0.10;;;0.10;;
15858;SDS011;8029;52.202;7.308;2023-05-10T10:22:16;0.00;;;0.00;;
15858;SDS011;8029;52.202;7.308;2023-05-10T10:24:42;0.00;;;0.00;;
15858;SDS011;8029;52.202;7.308;2023-05-10T10:30:13;0.00;;;0.00;;
15858;SDS011;8029;52.202;7.308;2023-05-10T10:32:48;0.00;;;0.00;;
15858;SDS011;8029;52.202;7.308;2023-05-10T10:35:19;0.22;;;0.22;;
15858;SDS011;8029;52.202;7.308;2023-05-10T10:37:46;0.00;;;0.00;;
15858;SDS011;8029;52.202;7.308;2023-05-10T10:40:22;0.10;;;0.10;;
15858;SDS011;8029;52.202;7.308;2023-05-10T10:42:49;0.10;;;0.10;;
15858;SDS011;8029;52.202;7.308;2023-05-10T10:45:15;0.00;;;0.00;;
15858;SDS011;8029;52.202;7.308;2023-05-10T10:47:41;0.10;;;0.10;;
15858;SDS011;8029;52.202;7.308;2023-05-10T10:50:08;0.00;;;0.00;;
15858;SDS011;8029;52.202;7.308;2023-05-10T10:52:36;0.10;;;0.10;;
15858;SDS011;8029;52.202;7.308;2023-05-10T10:55:16;0.10;;;0.10;;
15858;SDS011;8029;52.202;7.308;2023-05-10T10:57:50;0.05;;;0.05;;
15858;SDS011;8029;52.202;7.308;2023-05-10T11:02:46;0.00;;;0.00;;
15858;SDS011;8029;52.202;7.308;2023-05-10T11:05:25;0.10;;;0.10;;
15858;SDS011;8029;52.202;7.308;2023-05-10T11:08:18;0.00;;;0.00;;
15858;SDS011;8029;52.202;7.308;2023-05-10T11:11:01;0.00;;;0.00;;
15858;SDS011;8029;52.202;7.308;2023-05-10T11:13:38;0.00;;;0.00;;
15858;SDS011;8029;52.202;7.308;2023-05-10T11:18:59;0.10;;;0.10;;
15858;SDS011;8029;52.202;7.308;2023-05-10T11:21:27;0.10;;;0.10;;
15858;SDS011;8029;52.202;7.308;2023-05-10T11:23:54;0.00;;;0.00;;
15858;SDS011;8029;52.202;7.308;2023-05-10T11:26:33;0.00;;;0.00;;
15858;SDS011;8029;52.202;7.308;2023-05-10T11:29:00;0.00;;;0.00;;
15858;SDS011;8029;52.202;7.308;2023-05-10T11:31:26;0.03;;;0.03;;
15858;SDS011;8029;52.202;7.308;2023-05-10T11:33:53;0.00;;;0.00;;
15858;SDS011;8029;52.202;7.308;2023-05-10T11:36:24;0.00;;;0.00;;
15858;SDS011;8029;52.202;7.308;2023-05-10T11:38:51;9.73;;;8.48;;
15858;SDS011;8029;52.202;7.308;2023-05-10T11:41:17;11.38;;;9.30;;
15858;SDS011;8029;52.202;7.308;2023-05-10T11:43:45;16.58;;;8.13;;
15858;SDS011;8029;52.202;7.308;2023-05-10T11:46:13;10.15;;;8.18;;
15858;SDS011;8029;52.202;7.308;2023-05-10T11:48:39;10.25;;;8.88;;
15858;SDS011;8029;52.202;7.308;2023-05-10T11:51:06;9.55;;;8.25;;
15858;SDS011;8029;52.202;7.308;2023-05-10T11:53:32;11.48;;;9.00;;
15858;SDS011;8029;52.202;7.308;2023-05-10T11:56:05;9.18;;;7.05;;
15858;SDS011;8029;52.202;7.308;2023-05-10T11:58:31;13.00;;;8.63;;
15858;SDS011;8029;52.202;7.308;2023-05-10T12:00:58;13.70;;;8.18;;
15858;SDS011;8029;52.202;7.308;2023-05-10T12:03:24;14.98;;;8.70;;
15858;SDS011;8029;52.202;7.308;2023-05-10T12:05:50;10.48;;;8.32;;
15858;SDS011;8029;52.202;7.308;2023-05-10T12:08:20;10.38;;;7.60;;
15858;SDS011;8029;52.202;7.308;2023-05-10T12:10:46;6.88;;;5.88;;
15858;SDS011;8029;52.202;7.308;2023-05-10T12:13:13;6.25;;;5.63;;
15858;SDS011;8029;52.202;7.308;2023-05-10T12:15:39;9.48;;;6.22;;
15858;SDS011;8029;52.202;7.308;2023-05-10T12:18:05;9.27;;;6.47;;
15858;SDS011;8029;52.202;7.308;2023-05-10T12:20:31;7.47;;;6.45;;
15858;SDS011;8029;52.202;7.308;2023-05-10T12:22:58;12.43;;;6.72;;
15858;SDS011;8029;52.202;7.308;2023-05-10T12:25:30;7.10;;;5.50;;
15858;SDS011;8029;52.202;7.308;2023-05-10T12:27:57;8.27;;;6.53;;
15858;SDS011;8029;52.202;7.308;2023-05-10T12:30:26;11.60;;;6.80;;
15858;SDS011;8029;52.202;7.308;2023-05-10T12:32:52;8.48;;;6.00;;
15858;SDS011;8029;52.202;7.308;2023-05-10T12:35:19;10.57;;;7.15;;
15858;SDS011;8029;52.202;7.308;2023-05-10T12:37:49;10.30;;;6.63;;
15858;SDS011;8029;52.202;7.308;2023-05-10T12:40:16;14.95;;;5.95;;
15858;SDS011;8029;52.202;7.308;2023-05-10T12:42:42;6.40;;;5.80;;
15858;SDS011;8029;52.202;7.308;2023-05-10T12:45:11;8.52;;;7.43;;
15858;SDS011;8029;52.202;7.308;2023-05-10T12:47:37;7.50;;;6.22;;
15858;SDS011;8029;52.202;7.308;2023-05-10T12:50:04;9.80;;;6.38;;
15858;SDS011;8029;52.202;7.308;2023-05-10T12:52:30;11.63;;;6.45;;
15858;SDS011;8029;52.202;7.308;2023-05-10T12:54:57;13.93;;;6.43;;
15858;SDS011;8029;52.202;7.308;2023-05-10T12:57:23;8.90;;;5.70;;
15858;SDS011;8029;52.202;7.308;2023-05-10T12:59:50;6.75;;;6.03;;
15858;SDS011;8029;52.202;7.308;2023-05-10T13:02:16;6.57;;;5.88;;
15858;SDS011;8029;52.202;7.308;2023-05-10T13:04:46;7.65;;;5.78;;
15858;SDS011;8029;52.202;7.308;2023-05-10T13:07:12;8.43;;;5.57;;
15858;SDS011;8029;52.202;7.308;2023-05-10T13:09:38;6.90;;;5.30;;
15858;SDS011;8029;52.202;7.308;2023-05-10T13:12:04;5.93;;;4.90;;
15858;SDS011;8029;52.202;7.308;2023-05-10T13:14:30;9.57;;;5.60;;
15858;SDS011;8029;52.202;7.308;2023-05-10T13:16:56;7.35;;;6.25;;
15858;SDS011;8029;52.202;7.308;2023-05-10T13:19:22;8.00;;;5.90;;
15858;SDS011;8029;52.202;7.308;2023-05-10T13:21:48;8.07;;;5.53;;
15858;SDS011;8029;52.202;7.308;2023-05-10T13:24:14;8.00;;;5.85;;
15858;SDS011;8029;52.202;7.308;2023-05-10T13:26:40;5.68;;;5.07;;
15858;SDS011;8029;52.202;7.308;2023-05-10T13:29:06;8.25;;;5.93;;
15858;SDS011;8029;52.202;7.308;2023-05-10T13:31:33;10.13;;;5.88;;
15858;SDS011;8029;52.202;7.308;2023-05-10T13:33:59;6.03;;;4.80;;
15858;SDS011;8029;52.202;7.308;2023-05-10T13:36:25;8.85;;;5.30;;
15858;SDS011;8029;52.202;7.308;2023-05-10T13:38:51;4.25;;;3.85;;
15858;SDS011;8029;52.202;7.308;2023-05-10T13:41:17;5.07;;;4.55;;
15858;SDS011;8029;52.202;7.308;2023-05-10T13:43:43;6.75;;;5.57;;
15858;SDS011;8029;52.202;7.308;2023-05-10T13:46:09;9.40;;;5.05;;
15858;SDS011;8029;52.202;7.308;2023-05-10T13:48:35;8.23;;;5.35;;
15858;SDS011;8029;52.202;7.308;2023-05-10T13:51:04;7.40;;;5.30;;
15858;SDS011;8029;52.202;7.308;2023-05-10T13:53:30;7.25;;;4.95;;
15858;SDS011;8029;52.202;7.308;2023-05-10T13:55:56;5.60;;;4.65;;
15858;SDS011;8029;52.202;7.308;2023-05-10T13:58:22;7.22;;;5.55;;
15858;SDS011;8029;52.202;7.308;2023-05-10T14:00:48;8.02;;;4.97;;
15858;SDS011;8029;52.202;7.308;2023-05-10T14:03:15;9.93;;;5.75;;
15858;SDS011;8029;52.202;7.308;2023-05-10T14:05:41;6.85;;;5.05;;
15858;SDS011;8029;52.202;7.308;2023-05-10T14:08:08;7.20;;;5.57;;
15858;SDS011;8029;52.202;7.308;2023-05-10T14:10:34;6.18;;;4.38;;
15858;SDS011;8029;52.202;7.308;2023-05-10T14:13:01;8.02;;;5.20;;
15858;SDS011;8029;52.202;7.308;2023-05-10T14:15:28;8.10;;;4.72;;
15858;SDS011;8029;52.202;7.308;2023-05-10T14:17:54;5.13;;;4.25;;
15858;SDS011;8029;52.202;7.308;2023-05-10T14:20:20;4.88;;;4.38;;
15858;SDS011;8029;52.202;7.308;2023-05-10T14:22:46;9.07;;;4.50;;
15858;SDS011;8029;52.202;7.308;2023-05-10T14:25:12;5.53;;;5.00;;
15858;SDS011;8029;52.202;7.308;2023-05-10T14:27:39;5.95;;;4.90;;
15858;SDS011;8029;52.202;7.308;2023-05-10T14:30:05;9.63;;;5.72;;
15858;SDS011;8029;52.202;7.308;2023-05-10T14:32:31;6.35;;;4.65;;
15858;SDS011;8029;52.202;7.308;2023-05-10T14:34:57;3.95;;;3.53;;
15858;SDS011;8029;52.202;7.308;2023-05-10T14:37:24;4.80;;;3.70;;
15858;SDS011;8029;52.202;7.308;2023-05-10T14:39:50;4.32;;;3.70;;
15858;SDS011;8029;52.202;7.308;2023-05-10T14:42:17;16.88;;;4.97;;
15858;SDS011;8029;52.202;7.308;2023-05-10T14:44:43;6.82;;;4.80;;
15858;SDS011;8029;52.202;7.308;2023-05-10T14:47:09;12.13;;;5.95;;
15858;SDS011;8029;52.202;7.308;2023-05-10T14:49:35;4.93;;;4.43;;
15858;SDS011;8029;52.202;7.308;2023-05-10T14:52:01;5.20;;;4.63;;
15858;SDS011;8029;52.202;7.308;2023-05-10T14:54:28;9.43;;;4.40;;
15858;SDS011;8029;52.202;7.308;2023-05-10T14:56:54;6.93;;;5.18;;
15858;SDS011;8029;52.202;7.308;2023-05-10T14:59:20;7.70;;;5.97;;
15858;SDS011;8029;52.202;7.308;2023-05-10T15:01:46;9.45;;;5.75;;
15858;SDS011;8029;52.202;7.308;2023-05-10T15:04:12;8.68;;;5.90;;
15858;SDS011;8029;52.202;7.308;2023-05-10T15:06:38;6.43;;;4.68;;
15858;SDS011;8029;52.202;7.308;2023-05-10T15:09:04;4.10;;;3.67;;
15858;SDS011;8029;52.202;7.308;2023-05-10T15:11:31;9.70;;;5.60;;
15858;SDS011;8029;52.202;7.308;2023-05-10T15:13:57;9.82;;;4.28;;
15858;SDS011;8029;52.202;7.308;2023-05-10T15:16:23;9.05;;;4.88;;
15858;SDS011;8029;52.202;7.308;2023-05-10T15:18:49;6.32;;;4.90;;
15858;SDS011;8029;52.202;7.308;2023-05-10T15:21:15;9.60;;;4.03;;
15858;SDS011;8029;52.202;7.308;2023-05-10T15:23:41;5.18;;;3.80;;